sensor_id;sensor_type;location;lat;lon;timestamp;pressure;altitude;pressure_sealevel;temperature;humidity
36354;BME280;22383;51.114;13.666;2023-01-26T00:01:34;67102.59;;;-0.85;100.00
36354;BME280;22383;51.114;13.666;2023-01-26T00:04:01;67095.16;;;-0.87;100.00
36354;BME280;22383;51.114;13.666;2023-01-26T00:06:28;67085.97;;;-0.98;100.00
36354;BME280;22383;51.114;13.666;2023-01-26T00:08:56;67084.84;;;-0.99;100.00
36354;BME280;22383;51.114;13.666;2023-01-26T00:11:25;67100.91;;;-0.87;100.00
36354;BME280;22383;51.114;13.666;2023-01-26T00:13:54;67111.78;;;-0.74;100.00
36354;BME280;22383;51.114;13.666;2023-01-26T00:16:21;67100.97;;;-0.80;100.00
36354;BME280;22383;51.114;13.666;2023-01-26T00:18:49;67097.75;;;-0.87;100.00
36354;BME280;22383;51.114;13.666;2023-01-26T00:21:19;67088.78;;;-0.96;100.00
36354;BME280;22383;51.114;13.666;2023-01-26T00:23:48;67093.63;;;-0.93;100.00
36354;BME280;22383;51.114;13.666;2023-01-26T00:26:22;67098.88;;;-0.86;100.00
36354;BME280;22383;51.114;13.666;2023-01-26T00:28:51;67096.28;;;-0.86;100.00
36354;BME280;22383;51.114;13.666;2023-01-26T00:31:25;67091.25;;;-0.91;100.00
36354;BME280;22383;51.114;13.666;2023-01-26T00:33:53;67083.94;;;-0.98;100.00
36354;BME280;22383;51.114;13.666;2023-01-26T00:36:21;67087.66;;;-0.97;100.00
36354;BME280;22383;51.114;13.666;2023-01-26T00:38:48;67090.25;;;-0.97;100.00
36354;BME280;22383;51.114;13.666;2023-01-26T00:41:16;67082.03;;;-1.02;100.00
36354;BME280;22383;51.114;13.666;2023-01-26T00:44:02;67080.13;;;-1.06;100.00
36354;BME280;22383;51.114;13.666;2023-01-26T00:46:29;67091.16;;;-0.98;100.00
36354;BME280;22383;51.114;13.666;2023-01-26T00:48:57;67082.59;;;-1.01;100.00
36354;BME280;22383;51.114;13.666;2023-01-26T00:51:32;67077.41;;;-1.01;100.00
36354;BME280;22383;51.114;13.666;2023-01-26T00:53:59;67079.78;;;-1.04;100.00
36354;BME280;22383;51.114;13.666;2023-01-26T00:56:27;67081.34;;;-0.98;100.00
36354;BME280;22383;51.114;13.666;2023-01-26T00:58:54;67079.78;;;-1.04;100.00
36354;BME280;22383;51.114;13.666;2023-01-26T01:01:22;67080.69;;;-1.05;100.00
36354;BME280;22383;51.114;13.666;2023-01-26T01:03:49;67083.72;;;-1.00;100.00
36354;BME280;22383;51.114;13.666;2023-01-26T01:06:18;67085.19;;;-1.01;100.00
36354;BME280;22383;51.114;13.666;2023-01-26T01:08:45;67075.31;;;-1.08;100.00
36354;BME280;22383;51.114;13.666;2023-01-26T01:11:13;67083.28;;;-1.05;100.00
36354;BME280;22383;51.114;13.666;2023-01-26T01:13:41;67074.03;;;-1.04;100.00
36354;BME280;22383;51.114;13.666;2023-01-26T01:16:09;67079.22;;;-1.04;100.00
36354;BME280;22383;51.114;13.666;2023-01-26T01:18:37;67083.16;;;-1.01;100.00
36354;BME280;22383;51.114;13.666;2023-01-26T01:21:09;67078.09;;;-1.05;100.00
36354;BME280;22383;51.114;13.666;2023-01-26T01:23:37;67092.16;;;-0.92;100.00
36354;BME280;22383;51.114;13.666;2023-01-26T01:26:04;67079.22;;;-1.04;100.00
36354;BME280;22383;51.114;13.666;2023-01-26T01:28:32;67079.59;;;-1.06;100.00
36354;BME280;22383;51.114;13.666;2023-01-26T01:31:05;67081.47;;;-1.02;100.00
36354;BME280;22383;51.114;13.666;2023-01-26T01:33:35;67066.88;;;-1.16;100.00
36354;BME280;22383;51.114;13.666;2023-01-26T01:36:05;67061.69;;;-1.16;100.00
36354;BME280;22383;51.114;13.666;2023-01-26T01:38:33;67064.63;;;-1.18;100.00
36354;BME280;22383;51.114;13.666;2023-01-26T01:41:02;67065.19;;;-1.17;100.00
36354;BME280;22383;51.114;13.666;2023-01-26T01:43:29;67076.22;;;-1.09;100.00
36354;BME280;22383;51.114;13.666;2023-01-26T01:45:59;67074.53;;;-1.11;100.00
36354;BME280;22383;51.114;13.666;2023-01-26T01:48:56;67065.19;;;-1.17;100.00
36354;BME280;22383;51.114;13.666;2023-01-26T01:51:38;67068.56;;;-1.14;100.00
36354;BME280;22383;51.114;13.666;2023-01-26T01:54:11;67059.59;;;-1.22;100.00
36354;BME280;22383;51.114;13.666;2023-01-26T01:56:43;67063.72;;;-1.16;100.00
36354;BME280;22383;51.114;13.666;2023-01-26T01:59:13;67069.69;;;-1.13;100.00
36354;BME280;22383;51.114;13.666;2023-01-26T02:01:41;67065.34;;;-1.22;100.00
36354;BME280;22383;51.114;13.666;2023-01-26T02:04:08;67056.22;;;-1.25;100.00
36354;BME280;22383;51.114;13.666;2023-01-26T02:06:42;67062.97;;;-1.19;100.00
36354;BME280;22383;51.114;13.666;2023-01-26T02:09:15;67061.81;;;-1.20;100.00
36354;BME280;22383;51.114;13.666;2023-01-26T02:12:02;67062.03;;;-1.18;100.00
36354;BME280;22383;51.114;13.666;2023-01-26T02:14:32;67062.38;;;-1.20;100.00
36354;BME280;22383;51.114;13.666;2023-01-26T02:17:00;67051.56;;;-1.25;100.00
36354;BME280;22383;51.114;13.666;2023-01-26T02:22:41;67060.13;;;-1.22;100.00
36354;BME280;22383;51.114;13.666;2023-01-26T02:25:35;67054.53;;;-1.27;100.00
36354;BME280;22383;51.114;13.666;2023-01-26T02:28:06;67052.28;;;-1.29;100.00
36354;BME280;22383;51.114;13.666;2023-01-26T02:30:33;67056.00;;;-1.28;100.00
36354;BME280;22383;51.114;13.666;2023-01-26T02:33:01;67058.59;;;-1.28;100.00
36354;BME280;22383;51.114;13.666;2023-01-26T02:35:28;67050.94;;;-1.33;100.00
36354;BME280;22383;51.114;13.666;2023-01-26T02:37:57;67044.63;;;-1.34;100.00
36354;BME280;22383;51.114;13.666;2023-01-26T02:40:37;67044.63;;;-1.34;100.00
36354;BME280;22383;51.114;13.666;2023-01-26T02:43:06;67050.94;;;-1.33;100.00
36354;BME280;22383;51.114;13.666;2023-01-26T02:45:37;67057.34;;;-1.24;100.00
36354;BME280;22383;51.114;13.666;2023-01-26T02:48:07;67065.75;;;-1.17;100.00
36354;BME280;22383;51.114;13.666;2023-01-26T02:50:34;67064.41;;;-1.20;100.00
36354;BME280;22383;51.114;13.666;2023-01-26T02:53:02;67060.69;;;-1.21;100.00
36354;BME280;22383;51.114;13.666;2023-01-26T02:55:30;67069.69;;;-1.13;100.00
36354;BME280;22383;51.114;13.666;2023-01-26T02:58:00;67061.47;;;-1.18;100.00
36354;BME280;22383;51.114;13.666;2023-01-26T03:00:32;67073.63;;;-1.09;100.00
36354;BME280;22383;51.114;13.666;2023-01-26T03:03:13;67077.34;;;-1.08;100.00
36354;BME280;22383;51.114;13.666;2023-01-26T03:05:41;67068.56;;;-1.14;100.00
36354;BME280;22383;51.114;13.666;2023-01-26T03:08:08;67070.47;;;-1.10;100.00
36354;BME280;22383;51.114;13.666;2023-01-26T03:10:37;67069.91;;;-1.10;100.00
36354;BME280;22383;51.114;13.666;2023-01-26T03:13:06;67062.19;;;-1.22;100.00
36354;BME280;22383;51.114;13.666;2023-01-26T03:15:33;67057.53;;;-1.22;100.00
36354;BME280;22383;51.114;13.666;2023-01-26T03:18:15;67063.50;;;-1.19;100.00
36354;BME280;22383;51.114;13.666;2023-01-26T03:21:08;67062.38;;;-1.20;100.00
36354;BME280;22383;51.114;13.666;2023-01-26T03:23:54;67053.97;;;-1.27;100.00
36354;BME280;22383;51.114;13.666;2023-01-26T03:26:42;67064.84;;;-1.15;100.00
36354;BME280;22383;51.114;13.666;2023-01-26T03:29:29;67057.34;;;-1.24;100.00
36354;BME280;22383;51.114;13.666;2023-01-26T03:31:59;67050.25;;;-1.28;100.00
36354;BME280;22383;51.114;13.666;2023-01-26T03:34:27;67051.94;;;-1.27;100.00
36354;BME280;22383;51.114;13.666;2023-01-26T03:36:56;67055.31;;;-1.24;100.00
36354;BME280;22383;51.114;13.666;2023-01-26T03:39:26;67058.69;;;-1.21;100.00
36354;BME280;22383;51.114;13.666;2023-01-26T03:42:12;67052.84;;;-1.28;100.00
36354;BME280;22383;51.114;13.666;2023-01-26T03:44:57;67056.22;;;-1.25;100.00
36354;BME280;22383;51.114;13.666;2023-01-26T03:47:44;67016.94;;;-1.23;100.00
36354;BME280;22383;51.114;13.666;2023-01-26T03:50:31;67065.56;;;-1.19;100.00
36354;BME280;22383;51.114;13.666;2023-01-26T03:53:22;67057.91;;;-1.24;100.00
36354;BME280;22383;51.114;13.666;2023-01-26T03:56:10;67054.16;;;-1.25;100.00
36354;BME280;22383;51.114;13.666;2023-01-26T03:58:47;67056.22;;;-1.25;100.00
36354;BME280;22383;51.114;13.666;2023-01-26T04:01:15;67068.34;;;-1.17;100.00
36354;BME280;22383;51.114;13.666;2023-01-26T04:03:50;67062.25;;;-1.15;100.00
36354;BME280;22383;51.114;13.666;2023-01-26T04:06:37;67068.91;;;-1.16;100.00
36354;BME280;22383;51.114;13.666;2023-01-26T04:09:24;67063.16;;;-1.17;100.00
36354;BME280;22383;51.114;13.666;2023-01-26T04:11:51;67059.78;;;-1.20;100.00
36354;BME280;22383;51.114;13.666;2023-01-26T04:14:19;67068.22;;;-1.12;100.00
36354;BME280;22383;51.114;13.666;2023-01-26T04:17:20;67068.00;;;-1.15;100.00
36354;BME280;22383;51.114;13.666;2023-01-26T04:20:06;67062.38;;;-1.20;100.00
36354;BME280;22383;51.114;13.666;2023-01-26T04:22:52;67069.47;;;-1.16;100.00
36354;BME280;22383;51.114;13.666;2023-01-26T04:25:20;67073.41;;;-1.12;100.00
36354;BME280;22383;51.114;13.666;2023-01-26T04:27:49;67068.34;;;-1.17;100.00
36354;BME280;22383;51.114;13.666;2023-01-26T04:30:18;67070.25;;;-1.12;100.00
36354;BME280;22383;51.114;13.666;2023-01-26T04:32:45;67067.09;;;-1.13;100.00
36354;BME280;22383;51.114;13.666;2023-01-26T04:35:13;67066.09;;;-1.19;100.00
36354;BME280;22383;51.114;13.666;2023-01-26T04:37:44;67063.50;;;-1.19;100.00
36354;BME280;22383;51.114;13.666;2023-01-26T04:40:13;67066.09;;;-1.19;100.00
36354;BME280;22383;51.114;13.666;2023-01-26T04:42:41;67056.22;;;-1.25;100.00
36354;BME280;22383;51.114;13.666;2023-01-26T04:45:09;67048.00;;;-1.30;100.00
36354;BME280;22383;51.114;13.666;2023-01-26T04:47:38;67061.28;;;-1.21;100.00
36354;BME280;22383;51.114;13.666;2023-01-26T04:50:06;67058.44;;;-1.23;100.00
36354;BME280;22383;51.114;13.666;2023-01-26T04:52:43;67056.22;;;-1.25;100.00
36354;BME280;22383;51.114;13.666;2023-01-26T04:55:20;67053.97;;;-1.27;100.00
36354;BME280;22383;51.114;13.666;2023-01-26T04:57:47;67055.66;;;-1.26;100.00
36354;BME280;22383;51.114;13.666;2023-01-26T05:00:15;67042.63;;;-1.33;100.00
36354;BME280;22383;51.114;13.666;2023-01-26T05:02:43;67050.59;;;-1.30;100.00
36354;BME280;22383;51.114;13.666;2023-01-26T05:05:11;67058.44;;;-1.23;100.00
36354;BME280;22383;51.114;13.666;2023-01-26T05:07:38;67061.47;;;-1.18;100.00
36354;BME280;22383;51.114;13.666;2023-01-26T05:10:07;67055.66;;;-1.26;100.00
36354;BME280;22383;51.114;13.666;2023-01-26T05:13:01;67051.56;;;-1.25;100.00
36354;BME280;22383;51.114;13.666;2023-01-26T05:15:46;67060.13;;;-1.22;100.00
36354;BME280;22383;51.114;13.666;2023-01-26T05:18:24;67047.81;;;-1.33;100.00
36354;BME280;22383;51.114;13.666;2023-01-26T05:20:56;67036.56;;;-1.43;100.00
36354;BME280;22383;51.114;13.666;2023-01-26T05:23:33;67031.31;;;-1.50;100.00
36354;BME280;22383;51.114;13.666;2023-01-26T05:26:04;67016.38;;;-1.62;100.00
36354;BME280;22383;51.114;13.666;2023-01-26T05:28:42;67018.59;;;-1.60;100.00
36354;BME280;22383;51.114;13.666;2023-01-26T05:31:09;67013.56;;;-1.64;100.00
36354;BME280;22383;51.114;13.666;2023-01-26T05:33:37;67006.81;;;-1.71;100.00
36354;BME280;22383;51.114;13.666;2023-01-26T05:36:06;67004.03;;;-1.73;100.00
36354;BME280;22383;51.114;13.666;2023-01-26T05:38:34;67008.31;;;-1.72;100.00
36354;BME280;22383;51.114;13.666;2023-01-26T05:41:02;67007.72;;;-1.72;100.00
36354;BME280;22383;51.114;13.666;2023-01-26T05:43:38;67005.72;;;-1.72;100.00
36354;BME280;22383;51.114;13.666;2023-01-26T05:46:13;67024.00;;;-1.57;100.00
36354;BME280;22383;51.114;13.666;2023-01-26T05:48:42;67024.44;;;-1.52;100.00
36354;BME280;22383;51.114;13.666;2023-01-26T05:51:10;67044.97;;;-1.36;100.00
36354;BME280;22383;51.114;13.666;2023-01-26T05:53:38;67034.53;;;-1.43;100.00
36354;BME280;22383;51.114;13.666;2023-01-26T05:56:06;67039.00;;;-1.39;100.00
36354;BME280;22383;51.114;13.666;2023-01-26T05:58:40;67019.19;;;-1.59;100.00
36354;BME280;22383;51.114;13.666;2023-01-26T06:01:07;67025.91;;;-1.53;100.00
36354;BME280;22383;51.114;13.666;2023-01-26T06:03:44;67036.34;;;-1.46;100.00
36354;BME280;22383;51.114;13.666;2023-01-26T06:06:11;67027.59;;;-1.52;100.00
36354;BME280;22383;51.114;13.666;2023-01-26T06:09:01;67038.59;;;-1.44;100.00
36354;BME280;22383;51.114;13.666;2023-01-26T06:11:32;67037.69;;;-1.42;100.00
36354;BME280;22383;51.114;13.666;2023-01-26T06:14:16;67042.19;;;-1.38;100.00
36354;BME280;22383;51.114;13.666;2023-01-26T06:16:44;67025.56;;;-1.51;100.00
36354;BME280;22383;51.114;13.666;2023-01-26T06:19:11;67024.44;;;-1.52;100.00
36354;BME280;22383;51.114;13.666;2023-01-26T06:21:40;67021.19;;;-1.60;100.00
36354;BME280;22383;51.114;13.666;2023-01-26T06:24:08;67025.69;;;-1.56;100.00
36354;BME280;22383;51.114;13.666;2023-01-26T06:26:36;67037.13;;;-1.43;100.00
36354;BME280;22383;51.114;13.666;2023-01-26T06:29:03;67020.72;;;-1.53;100.00
36354;BME280;22383;51.114;13.666;2023-01-26T06:31:35;67030.19;;;-1.52;100.00
36354;BME280;22383;51.114;13.666;2023-01-26T06:34:04;67016.59;;;-1.59;100.00
36354;BME280;22383;51.114;13.666;2023-01-26T06:36:36;67028.38;;;-1.48;100.00
36354;BME280;22383;51.114;13.666;2023-01-26T06:39:05;67036.56;;;-1.43;100.00
36354;BME280;22383;51.114;13.666;2023-01-26T06:41:34;67030.25;;;-1.44;100.00
36354;BME280;22383;51.114;13.666;2023-01-26T06:44:02;67030.41;;;-1.49;100.00
36354;BME280;22383;51.114;13.666;2023-01-26T06:46:29;67036.56;;;-1.43;100.00
36354;BME280;22383;51.114;13.666;2023-01-26T06:49:01;67051.38;;;-1.27;100.00
36354;BME280;22383;51.114;13.666;2023-01-26T06:54:05;67043.31;;;-1.37;100.00
36354;BME280;22383;51.114;13.666;2023-01-26T06:56:55;67042.38;;;-1.36;100.00
36354;BME280;22383;51.114;13.666;2023-01-26T06:59:37;67041.06;;;-1.39;100.00
36354;BME280;22383;51.114;13.666;2023-01-26T07:02:28;67026.47;;;-1.53;100.00
36354;BME280;22383;51.114;13.666;2023-01-26T07:04:56;67031.16;;;-1.46;100.00
36354;BME280;22383;51.114;13.666;2023-01-26T07:07:23;67035.44;;;-1.44;100.00
36354;BME280;22383;51.114;13.666;2023-01-26T07:09:50;67032.06;;;-1.47;100.00
36354;BME280;22383;51.114;13.666;2023-01-26T07:12:18;67041.97;;;-1.41;100.00
36354;BME280;22383;51.114;13.666;2023-01-26T07:14:45;67043.31;;;-1.37;100.00
36354;BME280;22383;51.114;13.666;2023-01-26T07:17:12;67043.66;;;-1.39;100.00
36354;BME280;22383;51.114;13.666;2023-01-26T07:19:40;67033.97;;;-1.43;100.00
36354;BME280;22383;51.114;13.666;2023-01-26T07:22:07;67029.28;;;-1.50;100.00
36354;BME280;22383;51.114;13.666;2023-01-26T07:24:35;67031.16;;;-1.46;100.00
36354;BME280;22383;51.114;13.666;2023-01-26T07:27:02;67030.59;;;-1.46;100.00
36354;BME280;22383;51.114;13.666;2023-01-26T07:29:30;67029.28;;;-1.50;100.00
36354;BME280;22383;51.114;13.666;2023-01-26T07:31:58;67036.56;;;-1.43;100.00
36354;BME280;22383;51.114;13.666;2023-01-26T07:34:25;67024.09;;;-1.50;100.00
36354;BME280;22383;51.114;13.666;2023-01-26T07:36:52;67029.84;;;-1.49;100.00
36354;BME280;22383;51.114;13.666;2023-01-26T07:39:20;67025.00;;;-1.52;100.00
36354;BME280;22383;51.114;13.666;2023-01-26T07:41:48;67023.88;;;-1.53;100.00
36354;BME280;22383;51.114;13.666;2023-01-26T07:44:54;67018.28;;;-1.58;100.00
36354;BME280;22383;51.114;13.666;2023-01-26T07:47:21;67019.59;;;-1.54;100.00
36354;BME280;22383;51.114;13.666;2023-01-26T07:49:49;67029.63;;;-1.52;100.00
36354;BME280;22383;51.114;13.666;2023-01-26T07:52:16;67011.19;;;-1.62;100.00
36354;BME280;22383;51.114;13.666;2023-01-26T07:54:44;67026.25;;;-1.55;100.00
36354;BME280;22383;51.114;13.666;2023-01-26T07:57:11;67013.78;;;-1.62;100.00
36354;BME280;22383;51.114;13.666;2023-01-26T07:59:39;67018.59;;;-1.60;100.00
36354;BME280;22383;51.114;13.666;2023-01-26T08:02:08;67028.16;;;-1.51;100.00
36354;BME280;22383;51.114;13.666;2023-01-26T08:04:36;67017.50;;;-1.61;100.00
36354;BME280;22383;51.114;13.666;2023-01-26T08:07:04;67022.19;;;-1.54;100.00
36354;BME280;22383;51.114;13.666;2023-01-26T08:09:31;67028.16;;;-1.51;100.00
36354;BME280;22383;51.114;13.666;2023-01-26T08:11:58;67024.22;;;-1.55;100.00
36354;BME280;22383;51.114;13.666;2023-01-26T08:14:26;67024.78;;;-1.54;100.00
36354;BME280;22383;51.114;13.666;2023-01-26T08:17:11;67030.75;;;-1.51;100.00
36354;BME280;22383;51.114;13.666;2023-01-26T08:19:38;67013.22;;;-1.62;100.00
36354;BME280;22383;51.114;13.666;2023-01-26T08:22:05;67010.91;;;-1.72;100.00
36354;BME280;22383;51.114;13.666;2023-01-26T08:24:33;66996.94;;;-1.77;100.00
36354;BME280;22383;51.114;13.666;2023-01-26T08:27:00;66995.41;;;-1.83;100.00
36354;BME280;22383;51.114;13.666;2023-01-26T08:29:27;66990.00;;;-1.86;100.00
36354;BME280;22383;51.114;13.666;2023-01-26T08:31:55;66996.72;;;-1.80;100.00
36354;BME280;22383;51.114;13.666;2023-01-26T08:34:22;67001.56;;;-1.78;100.00
36354;BME280;22383;51.114;13.666;2023-01-26T08:36:52;66996.50;;;-1.82;100.00
36354;BME280;22383;51.114;13.666;2023-01-26T08:39:19;66989.44;;;-1.86;100.00
36354;BME280;22383;51.114;13.666;2023-01-26T08:41:47;66993.72;;;-1.85;100.00
36354;BME280;22383;51.114;13.666;2023-01-26T08:44:14;66992.25;;;-1.84;100.00
36354;BME280;22383;51.114;13.666;2023-01-26T08:46:44;66993.72;;;-1.85;100.00
36354;BME280;22383;51.114;13.666;2023-01-26T08:49:12;66990.56;;;-1.85;100.00
36354;BME280;22383;51.114;13.666;2023-01-26T08:51:39;66989.09;;;-1.84;100.00
36354;BME280;22383;51.114;13.666;2023-01-26T08:54:07;66990.34;;;-1.88;100.00
36354;BME280;22383;51.114;13.666;2023-01-26T08:56:34;66986.28;;;-1.87;100.00
36354;BME280;22383;51.114;13.666;2023-01-26T08:59:01;66990.56;;;-1.85;100.00
36354;BME280;22383;51.114;13.666;2023-01-26T09:01:32;66991.13;;;-1.85;100.00
36354;BME280;22383;51.114;13.666;2023-01-26T09:03:59;66988.31;;;-1.87;100.00
36354;BME280;22383;51.114;13.666;2023-01-26T09:06:27;66987.19;;;-1.88;100.00
36354;BME280;22383;51.114;13.666;2023-01-26T09:08:56;66987.75;;;-1.88;100.00
36354;BME280;22383;51.114;13.666;2023-01-26T09:11:26;66987.19;;;-1.88;100.00
36354;BME280;22383;51.114;13.666;2023-01-26T09:13:54;66988.09;;;-1.90;100.00
36354;BME280;22383;51.114;13.666;2023-01-26T09:16:24;66987.75;;;-1.88;100.00
36354;BME280;22383;51.114;13.666;2023-01-26T09:18:53;66989.22;;;-1.89;100.00
36354;BME280;22383;51.114;13.666;2023-01-26T09:21:20;66987.00;;;-1.91;100.00
36354;BME280;22383;51.114;13.666;2023-01-26T09:23:50;66990.56;;;-1.85;100.00
36354;BME280;22383;51.114;13.666;2023-01-26T09:26:17;66987.75;;;-1.88;100.00
36354;BME280;22383;51.114;13.666;2023-01-26T09:28:49;66988.53;;;-1.85;100.00
36354;BME280;22383;51.114;13.666;2023-01-26T09:31:16;66992.25;;;-1.84;100.00
36354;BME280;22383;51.114;13.666;2023-01-26T09:33:44;66992.25;;;-1.84;100.00
36354;BME280;22383;51.114;13.666;2023-01-26T09:36:11;66997.09;;;-1.82;100.00
36354;BME280;22383;51.114;13.666;2023-01-26T09:38:39;66995.03;;;-1.81;100.00
36354;BME280;22383;51.114;13.666;2023-01-26T09:43:54;67000.09;;;-1.77;100.00
36354;BME280;22383;51.114;13.666;2023-01-26T09:46:28;66991.31;;;-1.82;100.00
36354;BME280;22383;51.114;13.666;2023-01-26T09:49:08;66996.19;;;-1.80;100.00
36354;BME280;22383;51.114;13.666;2023-01-26T09:51:42;67004.72;;;-1.77;100.00
36354;BME280;22383;51.114;13.666;2023-01-26T09:57:01;66989.22;;;-1.89;100.00
36354;BME280;22383;51.114;13.666;2023-01-26T09:59:35;66993.72;;;-1.85;100.00
36354;BME280;22383;51.114;13.666;2023-01-26T10:02:32;66991.13;;;-1.85;100.00
36354;BME280;22383;51.114;13.666;2023-01-26T10:05:11;66990.00;;;-1.86;100.00
36354;BME280;22383;51.114;13.666;2023-01-26T10:07:42;66997.09;;;-1.82;100.00
36354;BME280;22383;51.114;13.666;2023-01-26T10:10:19;66987.41;;;-1.86;100.00
36354;BME280;22383;51.114;13.666;2023-01-26T10:12:50;66993.16;;;-1.85;100.00
36354;BME280;22383;51.114;13.666;2023-01-26T10:15:32;67005.50;;;-1.74;100.00
36354;BME280;22383;51.114;13.666;2023-01-26T10:18:07;67016.16;;;-1.64;100.00
36354;BME280;22383;51.114;13.666;2023-01-26T10:20:42;67010.75;;;-1.67;100.00
36354;BME280;22383;51.114;13.666;2023-01-26T10:23:15;67010.53;;;-1.69;100.00
36354;BME280;22383;51.114;13.666;2023-01-26T10:25:44;67004.03;;;-1.73;100.00
36354;BME280;22383;51.114;13.666;2023-01-26T10:30:47;67003.44;;;-1.74;100.00
36354;BME280;22383;51.114;13.666;2023-01-26T10:33:27;67012.00;;;-1.71;100.00
36354;BME280;22383;51.114;13.666;2023-01-26T10:35:56;67014.69;;;-1.63;100.00
36354;BME280;22383;51.114;13.666;2023-01-26T10:38:38;67006.28;;;-1.71;100.00
36354;BME280;22383;51.114;13.666;2023-01-26T10:43:55;66993.59;;;-1.80;100.00
36354;BME280;22383;51.114;13.666;2023-01-26T10:49:03;66990.56;;;-1.85;100.00
36354;BME280;22383;51.114;13.666;2023-01-26T10:51:43;66989.66;;;-1.84;100.00
36354;BME280;22383;51.114;13.666;2023-01-26T10:56:46;66995.28;;;-1.79;100.00
36354;BME280;22383;51.114;13.666;2023-01-26T10:59:30;66997.88;;;-1.79;100.00
36354;BME280;22383;51.114;13.666;2023-01-26T11:02:19;66999.88;;;-1.79;100.00
36354;BME280;22383;51.114;13.666;2023-01-26T11:07:38;66991.13;;;-1.85;100.00
36354;BME280;22383;51.114;13.666;2023-01-26T11:10:31;66995.41;;;-1.83;100.00
36354;BME280;22383;51.114;13.666;2023-01-26T11:13:15;66993.78;;;-1.78;100.00
36354;BME280;22383;51.114;13.666;2023-01-26T11:15:46;67000.84;;;-1.74;100.00
36354;BME280;22383;51.114;13.666;2023-01-26T11:20:51;67010.53;;;-1.69;100.00
36354;BME280;22383;51.114;13.666;2023-01-26T11:23:40;66995.59;;;-1.81;100.00
36354;BME280;22383;51.114;13.666;2023-01-26T11:42:45;66986.06;;;-1.90;100.00
36354;BME280;22383;51.114;13.666;2023-01-26T11:56:35;66986.63;;;-1.89;100.00
36354;BME280;22383;51.114;13.666;2023-01-26T11:59:20;66995.59;;;-1.81;100.00
36354;BME280;22383;51.114;13.666;2023-01-26T12:01:58;66998.06;;;-1.76;100.00
36354;BME280;22383;51.114;13.666;2023-01-26T12:04:30;67002.91;;;-1.74;100.00
36354;BME280;22383;51.114;13.666;2023-01-26T12:07:11;67003.25;;;-1.76;100.00
36354;BME280;22383;51.114;13.666;2023-01-26T12:09:44;66998.41;;;-1.78;100.00
36354;BME280;22383;51.114;13.666;2023-01-26T12:15:26;66978.22;;;-1.97;100.00
36354;BME280;22383;51.114;13.666;2023-01-26T12:20:55;66979.69;;;-1.98;100.00
36354;BME280;22383;51.114;13.666;2023-01-26T12:23:47;66987.19;;;-1.88;100.00
36354;BME280;22383;51.114;13.666;2023-01-26T12:26:15;66974.50;;;-1.98;100.00
36354;BME280;22383;51.114;13.666;2023-01-26T12:29:08;66973.50;;;-2.03;100.00
36354;BME280;22383;51.114;13.666;2023-01-26T12:32:03;66970.59;;;-2.01;100.00
36354;BME280;22383;51.114;13.666;2023-01-26T12:34:34;66974.28;;;-2.00;100.00
36354;BME280;22383;51.114;13.666;2023-01-26T12:39:48;66982.72;;;-1.93;100.00
36354;BME280;22383;51.114;13.666;2023-01-26T12:45:10;66973.38;;;-1.99;100.00
36354;BME280;22383;51.114;13.666;2023-01-26T12:47:44;66977.78;;;-2.02;100.00
36354;BME280;22383;51.114;13.666;2023-01-26T12:50:31;66977.84;;;-1.95;100.00
36354;BME280;22383;51.114;13.666;2023-01-26T12:53:08;66971.50;;;-2.03;100.00
36354;BME280;22383;51.114;13.666;2023-01-26T12:55:45;66975.41;;;-1.99;100.00
36354;BME280;22383;51.114;13.666;2023-01-26T12:58:23;66968.31;;;-2.03;100.00
36354;BME280;22383;51.114;13.666;2023-01-26T13:03:29;66972.94;;;-2.04;100.00
36354;BME280;22383;51.114;13.666;2023-01-26T13:11:04;66976.31;;;-2.01;100.00
36354;BME280;22383;51.114;13.666;2023-01-26T13:13:52;66970.72;;;-2.06;100.00
36354;BME280;22383;51.114;13.666;2023-01-26T13:16:33;66971.50;;;-2.03;100.00
36354;BME280;22383;51.114;13.666;2023-01-26T13:19:01;66974.28;;;-2.00;100.00
36354;BME280;22383;51.114;13.666;2023-01-26T13:24:02;66970.72;;;-2.06;100.00
36354;BME280;22383;51.114;13.666;2023-01-26T13:26:51;66968.69;;;-2.05;100.00
36354;BME280;22383;51.114;13.666;2023-01-26T13:31:55;66959.13;;;-2.14;100.00
36354;BME280;22383;51.114;13.666;2023-01-26T13:37:03;66961.41;;;-2.12;100.00
36354;BME280;22383;51.114;13.666;2023-01-26T13:39:37;66959.72;;;-2.14;100.00
36354;BME280;22383;51.114;13.666;2023-01-26T13:42:37;66947.78;;;-2.20;100.00
36354;BME280;22383;51.114;13.666;2023-01-26T13:45:19;66945.31;;;-2.24;100.00
36354;BME280;22383;51.114;13.666;2023-01-26T13:47:52;66938.81;;;-2.28;100.00
36354;BME280;22383;51.114;13.666;2023-01-26T13:52:49;66942.09;;;-2.32;100.00
36354;BME280;22383;51.114;13.666;2023-01-26T13:55:26;66941.41;;;-2.28;100.00
36354;BME280;22383;51.114;13.666;2023-01-26T13:58:17;66939.16;;;-2.30;100.00
36354;BME280;22383;51.114;13.666;2023-01-26T14:03:25;66938.97;;;-2.33;100.00
36354;BME280;22383;51.114;13.666;2023-01-26T14:05:56;66943.78;;;-2.31;100.00
36354;BME280;22383;51.114;13.666;2023-01-26T14:08:25;66942.34;;;-2.30;100.00
36354;BME280;22383;51.114;13.666;2023-01-26T14:10:53;66947.72;;;-2.27;100.00
36354;BME280;22383;51.114;13.666;2023-01-26T14:13:32;66946.38;;;-2.31;100.00
36354;BME280;22383;51.114;13.666;2023-01-26T14:16:03;66945.13;;;-2.27;100.00
36354;BME280;22383;51.114;13.666;2023-01-26T14:18:33;66948.28;;;-2.26;100.00
36354;BME280;22383;51.114;13.666;2023-01-26T14:21:03;66941.75;;;-2.30;100.00
36354;BME280;22383;51.114;13.666;2023-01-26T14:23:35;66947.91;;;-2.24;100.00
36354;BME280;22383;51.114;13.666;2023-01-26T14:26:05;66947.91;;;-2.24;100.00
36354;BME280;22383;51.114;13.666;2023-01-26T14:28:41;66944.78;;;-2.25;100.00
36354;BME280;22383;51.114;13.666;2023-01-26T14:31:19;66946.81;;;-2.25;100.00
36354;BME280;22383;51.114;13.666;2023-01-26T14:33:48;66946.81;;;-2.25;100.00
36354;BME280;22383;51.114;13.666;2023-01-26T14:36:19;66946.38;;;-2.31;100.00